createdAt,value
2023-01-03T00:02:12.234Z,8.32
2023-01-03T00:04:39.700Z,8.30
2023-01-03T00:07:08.651Z,8.45
2023-01-03T00:09:35.119Z,7.78
2023-01-03T00:12:20.174Z,8.15
2023-01-03T00:14:46.586Z,8.32
2023-01-03T00:17:13.647Z,8.52
2023-01-03T00:19:44.300Z,7.80
2023-01-03T00:22:12.488Z,7.93
2023-01-03T00:24:39.072Z,7.82
2023-01-03T00:27:06.106Z,8.35
2023-01-03T00:29:32.853Z,7.95
2023-01-03T00:31:59.786Z,7.97
2023-01-03T00:34:26.578Z,8.27
2023-01-03T00:36:53.166Z,8.60
2023-01-03T00:39:19.916Z,7.93
2023-01-03T00:41:46.834Z,8.52
2023-01-03T00:44:13.619Z,8.25
2023-01-03T00:46:40.598Z,8.48
2023-01-03T00:49:07.486Z,8.18
2023-01-03T00:51:36.220Z,8.20
2023-01-03T00:54:05.209Z,7.78
2023-01-03T00:56:34.903Z,7.20
2023-01-03T00:59:02.335Z,7.40
2023-01-03T01:01:44.062Z,7.95
2023-01-03T01:04:27.734Z,8.05
2023-01-03T01:06:57.803Z,7.63
2023-01-03T01:09:33.088Z,7.60
2023-01-03T01:11:59.667Z,9.00
2023-01-03T01:14:28.277Z,7.97
2023-01-03T01:17:00.328Z,7.82
2023-01-03T01:19:30.499Z,7.88
2023-01-03T01:21:57.645Z,7.43
2023-01-03T01:24:24.728Z,7.95
2023-01-03T01:26:51.685Z,7.30
2023-01-03T01:29:18.897Z,8.52
2023-01-03T01:31:47.062Z,8.07
2023-01-03T01:34:14.215Z,8.05
2023-01-03T01:36:42.537Z,8.88
2023-01-03T01:39:13.823Z,8.30
2023-01-03T01:42:00.202Z,8.35
2023-01-03T01:44:54.475Z,7.80
2023-01-03T01:47:33.247Z,7.82
2023-01-03T01:50:21.693Z,7.38
2023-01-03T01:53:10.459Z,7.00
2023-01-03T01:55:58.693Z,7.15
2023-01-03T01:58:31.447Z,7.60
2023-01-03T02:00:58.732Z,7.72
2023-01-03T02:03:25.279Z,7.75
2023-01-03T02:05:54.663Z,7.30
2023-01-03T02:08:22.212Z,7.15
2023-01-03T02:11:06.881Z,8.02
2023-01-03T02:14:07.596Z,7.63
2023-01-03T02:16:56.893Z,7.53
2023-01-03T02:19:23.339Z,7.93
2023-01-03T02:22:15.768Z,8.52
2023-01-03T02:25:04.087Z,7.88
2023-01-03T02:28:10.187Z,8.07
2023-01-03T02:30:40.869Z,7.95
2023-01-03T02:33:28.892Z,8.80
2023-01-03T02:36:09.492Z,8.07
2023-01-03T02:38:52.855Z,8.35
2023-01-03T02:41:27.069Z,9.65
2023-01-03T02:44:07.876Z,8.85
2023-01-03T02:46:46.815Z,9.30
2023-01-03T02:49:23.013Z,10.27
2023-01-03T02:51:57.558Z,8.90
2023-01-03T02:54:34.147Z,9.63
2023-01-03T02:57:11.769Z,11.50
2023-01-03T02:59:53.462Z,9.43
2023-01-03T03:02:23.872Z,9.83
2023-01-03T03:04:56.756Z,10.45
2023-01-03T03:07:26.742Z,10.40
2023-01-03T03:10:11.877Z,10.65
2023-01-03T03:13:00.688Z,10.23
2023-01-03T03:15:32.699Z,10.07
2023-01-03T03:18:04.972Z,10.82
2023-01-03T03:20:50.072Z,11.57
2023-01-03T03:23:38.907Z,11.48
2023-01-03T03:26:13.474Z,14.00
2023-01-03T03:28:44.183Z,14.02
2023-01-03T03:31:16.755Z,13.50
2023-01-03T03:33:51.077Z,14.13
2023-01-03T03:36:28.014Z,13.00
2023-01-03T03:38:54.624Z,13.38
2023-01-03T03:41:54.262Z,12.88
2023-01-03T03:45:01.109Z,13.77
2023-01-03T03:47:51.246Z,12.70
2023-01-03T03:50:17.633Z,14.05
2023-01-03T03:52:47.647Z,13.82
2023-01-03T03:55:22.400Z,14.60
2023-01-03T03:57:57.467Z,14.82
2023-01-03T04:00:28.895Z,17.00
2023-01-03T04:02:59.846Z,15.32
2023-01-03T04:05:30.170Z,16.35
2023-01-03T04:07:56.727Z,16.65
2023-01-03T04:10:24.408Z,16.25
2023-01-03T04:12:54.175Z,16.67
2023-01-03T04:15:20.980Z,16.58
2023-01-03T04:17:47.510Z,15.80
2023-01-03T04:20:14.971Z,16.67
2023-01-03T04:22:41.487Z,15.77
2023-01-03T04:25:08.612Z,16.30
2023-01-03T04:27:35.126Z,16.58
2023-01-03T04:30:01.777Z,15.52
2023-01-03T04:32:28.281Z,14.85
2023-01-03T04:34:54.699Z,14.73
2023-01-03T04:37:21.204Z,14.38
2023-01-03T04:39:47.684Z,14.48
2023-01-03T04:42:33.811Z,14.20
2023-01-03T04:45:00.295Z,14.07
2023-01-03T04:47:26.762Z,15.77
2023-01-03T04:49:53.258Z,15.23
2023-01-03T04:52:19.726Z,16.63
2023-01-03T04:54:46.219Z,17.52
2023-01-03T04:57:12.663Z,17.83
2023-01-03T04:59:39.225Z,17.67
2023-01-03T05:02:05.814Z,19.40
2023-01-03T05:04:32.511Z,19.40
2023-01-03T05:06:59.080Z,18.35
2023-01-03T05:09:27.148Z,19.77
2023-01-03T05:11:54.075Z,18.27
2023-01-03T05:14:20.649Z,19.52
2023-01-03T05:16:47.243Z,18.35
2023-01-03T05:19:13.803Z,19.15
2023-01-03T05:21:58.966Z,18.65
2023-01-03T05:24:43.871Z,19.65
2023-01-03T05:27:10.523Z,20.30
2023-01-03T05:29:37.413Z,20.58
2023-01-03T05:32:04.114Z,21.00
2023-01-03T05:34:30.704Z,21.92
2023-01-03T05:36:57.189Z,23.13
2023-01-03T05:39:23.665Z,20.02
2023-01-03T05:42:02.457Z,21.17
2023-01-03T05:44:32.875Z,20.23
2023-01-03T05:47:00.794Z,20.70
2023-01-03T05:49:27.421Z,18.58
2023-01-03T05:51:53.891Z,18.52
2023-01-03T05:54:20.469Z,18.95
2023-01-03T05:56:47.624Z,18.60
2023-01-03T05:59:14.544Z,18.45
2023-01-03T06:01:41.114Z,18.17
2023-01-03T06:04:07.745Z,18.42
2023-01-03T06:06:34.531Z,19.75
2023-01-03T06:09:01.061Z,17.60
2023-01-03T06:11:27.848Z,16.98
2023-01-03T06:13:54.332Z,17.67
2023-01-03T06:16:40.104Z,17.55
2023-01-03T06:19:07.479Z,16.58
2023-01-03T06:21:34.781Z,16.67
2023-01-03T06:24:01.299Z,17.50
2023-01-03T06:26:28.148Z,16.88
2023-01-03T06:28:54.837Z,16.45
2023-01-03T06:31:21.585Z,15.70
2023-01-03T06:33:48.471Z,15.25
2023-01-03T06:36:18.389Z,15.43
2023-01-03T06:38:45.031Z,15.90
2023-01-03T06:41:12.956Z,14.88
2023-01-03T06:43:39.537Z,15.60
2023-01-03T06:46:25.933Z,16.48
2023-01-03T06:49:12.114Z,13.90
2023-01-03T06:51:57.417Z,15.15
2023-01-03T06:54:37.764Z,14.73
2023-01-03T06:57:04.976Z,14.60
2023-01-03T06:59:31.670Z,15.55
2023-01-03T07:01:58.296Z,15.52
2023-01-03T07:04:26.003Z,15.00
2023-01-03T07:06:52.764Z,14.57
2023-01-03T07:09:19.307Z,14.45
2023-01-03T07:11:45.900Z,14.23
2023-01-03T07:14:13.094Z,13.70
2023-01-03T07:16:50.123Z,14.90
2023-01-03T07:19:19.122Z,13.55
2023-01-03T07:21:46.484Z,12.40
2023-01-03T07:24:15.073Z,13.93
2023-01-03T07:26:41.615Z,13.43
2023-01-03T07:29:10.370Z,13.20
2023-01-03T07:31:40.070Z,12.88
2023-01-03T07:34:06.608Z,12.57
2023-01-03T07:36:33.187Z,12.35
2023-01-03T07:38:59.714Z,12.15
2023-01-03T07:41:46.378Z,12.55
2023-01-03T07:44:12.873Z,11.20
2023-01-03T07:46:39.507Z,11.73
2023-01-03T07:49:11.571Z,11.85
2023-01-03T07:51:39.599Z,12.35
2023-01-03T07:54:07.421Z,12.23
2023-01-03T07:56:34.199Z,11.50
2023-01-03T07:59:00.749Z,11.65
2023-01-03T08:01:27.688Z,11.77
2023-01-03T08:03:54.355Z,11.20
2023-01-03T08:06:23.844Z,10.65
2023-01-03T08:09:09.845Z,10.68
2023-01-03T08:11:55.500Z,10.50
2023-01-03T08:14:26.091Z,10.25
2023-01-03T08:16:53.588Z,10.73
2023-01-03T08:19:20.069Z,9.88
2023-01-03T08:21:46.555Z,10.52
2023-01-03T08:24:13.010Z,9.80
2023-01-03T08:26:39.601Z,10.50
2023-01-03T08:29:06.723Z,10.50
2023-01-03T08:31:37.948Z,9.70
2023-01-03T08:34:13.663Z,9.75
2023-01-03T08:36:48.984Z,8.90
2023-01-03T08:39:19.913Z,9.15
2023-01-03T08:41:52.170Z,8.80
2023-01-03T08:44:18.694Z,9.13
2023-01-03T08:46:49.779Z,8.25
2023-01-03T08:49:16.581Z,10.68
2023-01-03T08:51:43.183Z,10.43
2023-01-03T08:54:09.728Z,9.73
2023-01-03T08:56:36.768Z,9.77
2023-01-03T08:59:03.625Z,9.52
2023-01-03T09:01:30.213Z,9.25
2023-01-03T09:03:56.859Z,9.50
2023-01-03T09:06:23.540Z,8.80
2023-01-03T09:08:49.975Z,9.90
2023-01-03T09:11:16.942Z,9.35
2023-01-03T09:13:43.436Z,9.55
2023-01-03T09:16:12.640Z,9.50
2023-01-03T09:18:40.695Z,10.82
2023-01-03T09:21:08.122Z,10.88
2023-01-03T09:23:36.372Z,10.75
2023-01-03T09:26:03.616Z,10.85
2023-01-03T09:28:30.245Z,10.38
2023-01-03T09:30:57.122Z,11.77
2023-01-03T09:33:23.882Z,11.43
2023-01-03T09:35:52.956Z,10.77
2023-01-03T09:38:20.268Z,10.85
2023-01-03T09:40:47.899Z,11.25
2023-01-03T09:43:24.949Z,13.00
2023-01-03T09:45:58.267Z,11.98
2023-01-03T09:48:34.549Z,13.25
2023-01-03T09:51:22.552Z,14.52
2023-01-03T09:54:06.763Z,13.52
2023-01-03T09:56:51.536Z,10.85
2023-01-03T09:59:36.894Z,14.32
2023-01-03T10:03:28.322Z,14.00
2023-01-03T10:06:10.058Z,13.38
2023-01-03T10:08:47.664Z,13.25
2023-01-03T10:11:45.742Z,13.90
2023-01-03T10:14:30.272Z,14.40
2023-01-03T10:17:02.412Z,13.55
2023-01-03T10:19:34.788Z,13.18
2023-01-03T10:22:18.980Z,13.60
2023-01-03T10:24:48.355Z,12.43
2023-01-03T10:27:16.722Z,13.02
2023-01-03T10:29:46.135Z,12.95
2023-01-03T10:32:46.392Z,13.35
2023-01-03T10:35:21.532Z,12.43
2023-01-03T10:37:51.929Z,13.00
2023-01-03T10:40:18.619Z,14.23
2023-01-03T10:42:45.910Z,16.80
2023-01-03T10:45:17.010Z,15.00
2023-01-03T10:48:05.190Z,14.35
2023-01-03T10:50:38.838Z,13.63
2023-01-03T10:53:08.553Z,13.90
2023-01-03T10:55:43.770Z,13.73
2023-01-03T10:58:22.302Z,14.02
2023-01-03T11:00:49.537Z,13.82
2023-01-03T11:03:16.570Z,13.57
2023-01-03T11:05:46.471Z,12.45
2023-01-03T11:08:18.239Z,13.63
2023-01-03T11:13:38.001Z,12.75
2023-01-03T11:16:13.582Z,12.52
2023-01-03T11:18:42.289Z,12.05
2023-01-03T11:21:12.967Z,12.82
2023-01-03T11:24:01.381Z,12.88
2023-01-03T11:26:37.385Z,11.52
2023-01-03T11:29:06.761Z,11.70
2023-01-03T11:31:40.567Z,13.57
2023-01-03T11:35:03.038Z,12.25
2023-01-03T11:37:47.830Z,12.57
2023-01-03T11:40:28.374Z,13.15
2023-01-03T11:43:05.172Z,11.70
2023-01-03T11:45:49.193Z,12.35
2023-01-03T11:49:01.443Z,12.40
2023-01-03T11:51:30.621Z,12.18
2023-01-03T11:54:09.173Z,12.40
2023-01-03T11:56:44.676Z,12.23
2023-01-03T11:59:35.389Z,12.52
2023-01-03T12:02:20.334Z,12.60
2023-01-03T12:05:17.493Z,13.30
2023-01-03T12:07:54.931Z,12.43
2023-01-03T12:10:45.881Z,12.98
2023-01-03T12:13:26.946Z,13.68
2023-01-03T12:16:06.927Z,12.73
2023-01-03T12:18:53.145Z,13.10
2023-01-03T12:21:36.113Z,12.60
2023-01-03T12:24:20.895Z,13.40
2023-01-03T12:26:57.805Z,13.15
2023-01-03T12:29:31.445Z,12.77
2023-01-03T12:32:14.455Z,12.05
2023-01-03T12:34:54.072Z,12.50
2023-01-03T12:37:24.406Z,11.38
2023-01-03T12:39:55.262Z,11.68
2023-01-03T12:42:27.140Z,11.97
2023-01-03T12:47:45.286Z,10.90
2023-01-03T12:50:33.286Z,12.35
2023-01-03T12:53:22.508Z,11.63
2023-01-03T12:56:17.962Z,11.90
2023-01-03T12:58:56.904Z,12.07
2023-01-03T13:01:42.468Z,12.02
2023-01-03T13:04:23.806Z,11.25
2023-01-03T13:07:18.649Z,11.00
2023-01-03T13:09:56.009Z,8.32
2023-01-03T13:12:31.729Z,8.95
2023-01-03T13:15:23.058Z,8.57
2023-01-03T13:17:50.282Z,8.15
2023-01-03T13:20:36.582Z,7.00
2023-01-03T13:23:35.868Z,7.95
2023-01-03T13:26:05.712Z,6.95
2023-01-03T13:28:36.651Z,6.78
2023-01-03T13:31:37.015Z,6.80
2023-01-03T13:34:11.701Z,6.10
2023-01-03T13:37:16.415Z,6.00
2023-01-03T13:39:51.784Z,6.53
2023-01-03T13:42:33.333Z,6.28
2023-01-03T13:45:14.950Z,5.75
2023-01-03T13:47:47.291Z,5.68
2023-01-03T13:50:25.741Z,5.55
2023-01-03T13:53:10.169Z,5.45
2023-01-03T13:56:01.034Z,5.47
2023-01-03T13:58:32.848Z,4.82
2023-01-03T14:03:43.067Z,4.93
2023-01-03T14:06:18.865Z,5.05
2023-01-03T14:09:16.025Z,4.57
2023-01-03T14:12:03.806Z,4.82
2023-01-03T14:14:36.123Z,5.25
2023-01-03T14:17:04.304Z,5.72
2023-01-03T14:19:35.558Z,5.30
2023-01-03T14:22:29.149Z,4.95
2023-01-03T14:24:59.047Z,4.78
2023-01-03T14:27:46.272Z,5.45
2023-01-03T14:30:21.944Z,5.07
2023-01-03T14:32:48.646Z,4.90
2023-01-03T14:35:34.889Z,5.20
2023-01-03T14:38:06.502Z,5.05
2023-01-03T14:40:33.856Z,4.90
2023-01-03T14:43:04.435Z,5.13
2023-01-03T14:45:31.009Z,5.47
2023-01-03T14:47:57.712Z,5.20
2023-01-03T14:50:29.637Z,4.82
2023-01-03T14:52:58.826Z,5.97
2023-01-03T14:55:28.718Z,6.18
2023-01-03T14:57:55.862Z,4.95
2023-01-03T15:00:35.789Z,4.88
2023-01-03T15:03:03.972Z,5.53
2023-01-03T15:05:39.376Z,5.43
2023-01-03T15:08:15.156Z,4.88
2023-01-03T15:10:44.110Z,5.70
2023-01-03T15:13:49.442Z,4.85
2023-01-03T15:16:29.279Z,4.90
2023-01-03T15:19:02.990Z,4.80
2023-01-03T15:21:30.641Z,4.35
2023-01-03T15:23:57.535Z,4.60
2023-01-03T15:26:40.373Z,4.78
2023-01-03T15:29:13.421Z,4.40
2023-01-03T15:31:53.309Z,4.90
2023-01-03T15:34:30.919Z,4.57
2023-01-03T15:36:59.795Z,4.75
2023-01-03T15:39:36.807Z,4.30
2023-01-03T15:45:11.477Z,4.32
2023-01-03T15:47:39.388Z,4.18
2023-01-03T15:50:06.994Z,4.38
2023-01-03T15:52:33.700Z,4.43
2023-01-03T15:55:00.163Z,5.03
2023-01-03T15:57:30.100Z,4.57
2023-01-03T16:00:00.660Z,4.88
2023-01-03T16:02:27.971Z,4.93
2023-01-03T16:04:54.583Z,5.57
2023-01-03T16:07:21.153Z,5.43
2023-01-03T16:09:48.397Z,4.93
2023-01-03T16:12:21.720Z,4.93
2023-01-03T16:14:51.414Z,3.92
2023-01-03T16:17:24.907Z,4.25
2023-01-03T16:19:53.070Z,4.07
2023-01-03T16:22:37.578Z,3.72
2023-01-03T16:25:06.153Z,3.70
2023-01-03T16:27:32.652Z,3.88
2023-01-03T16:29:59.368Z,4.47
2023-01-03T16:32:28.881Z,3.60
2023-01-03T16:35:04.631Z,3.85
2023-01-03T16:37:31.284Z,4.35
2023-01-03T16:39:58.621Z,4.40
2023-01-03T16:42:28.346Z,4.00
2023-01-03T16:44:54.980Z,4.53
2023-01-03T16:47:24.266Z,5.20
2023-01-03T16:49:57.539Z,5.38
2023-01-03T16:52:32.666Z,5.53
2023-01-03T16:55:06.247Z,4.63
2023-01-03T16:57:33.282Z,4.97
2023-01-03T17:00:00.031Z,4.68
2023-01-03T17:02:26.668Z,3.90
2023-01-03T17:04:53.265Z,4.38
2023-01-03T17:07:23.901Z,4.38
2023-01-03T17:09:51.338Z,4.47
2023-01-03T17:12:22.031Z,4.00
2023-01-03T17:14:49.961Z,4.57
2023-01-03T17:17:18.327Z,4.53
2023-01-03T17:20:04.078Z,4.20
2023-01-03T17:22:31.664Z,5.03
2023-01-03T17:24:58.198Z,4.72
2023-01-03T17:27:32.578Z,3.97
2023-01-03T17:30:06.053Z,4.95
2023-01-03T17:32:33.898Z,4.18
2023-01-03T17:35:00.577Z,4.47
2023-01-03T17:37:27.060Z,4.78
2023-01-03T17:39:59.529Z,3.75
2023-01-03T17:42:28.728Z,4.63
2023-01-03T17:45:13.741Z,3.97
2023-01-03T17:48:01.321Z,4.10
2023-01-03T17:50:30.177Z,4.20
2023-01-03T17:52:58.593Z,4.05
2023-01-03T17:55:28.858Z,4.75
2023-01-03T17:57:56.644Z,4.20
2023-01-03T18:00:25.480Z,4.32
2023-01-03T18:02:52.701Z,4.07
2023-01-03T18:05:27.150Z,4.13
2023-01-03T18:07:57.088Z,4.32
2023-01-03T18:10:45.845Z,3.75
2023-01-03T18:13:24.752Z,4.63
2023-01-03T18:15:52.070Z,3.80
2023-01-03T18:18:20.670Z,3.92
2023-01-03T18:20:47.292Z,7.15
2023-01-03T18:23:20.152Z,9.45
2023-01-03T18:25:46.800Z,6.20
2023-01-03T18:28:21.060Z,4.60
2023-01-03T18:30:47.759Z,5.07
2023-01-03T18:33:14.332Z,6.18
2023-01-03T18:35:41.753Z,5.50
2023-01-03T18:38:19.636Z,4.53
2023-01-03T18:40:47.708Z,5.03
2023-01-03T18:43:15.933Z,6.55
2023-01-03T18:45:42.466Z,5.97
2023-01-03T18:48:14.859Z,6.30
2023-01-03T18:50:42.515Z,6.50
2023-01-03T18:53:14.643Z,7.07
2023-01-03T18:55:41.199Z,5.03
2023-01-03T18:58:17.481Z,6.40
2023-01-03T19:00:45.786Z,7.63
2023-01-03T19:03:20.989Z,5.32
2023-01-03T19:05:47.696Z,5.13
2023-01-03T19:08:16.896Z,4.75
2023-01-03T19:10:43.908Z,4.15
2023-01-03T19:13:24.340Z,4.28
2023-01-03T19:15:50.904Z,4.25
2023-01-03T19:18:17.878Z,3.95
2023-01-03T19:20:44.836Z,4.00
2023-01-03T19:23:19.588Z,3.58
2023-01-03T19:25:46.076Z,3.00
2023-01-03T19:28:12.753Z,3.38
2023-01-03T19:30:46.061Z,3.28
2023-01-03T19:33:15.000Z,3.70
2023-01-03T19:35:43.591Z,2.80
2023-01-03T19:38:10.160Z,3.05
2023-01-03T19:40:39.214Z,3.70
2023-01-03T19:43:06.461Z,3.72
2023-01-03T19:45:36.340Z,2.78
2023-01-03T19:48:21.253Z,2.75
2023-01-03T19:50:48.507Z,3.03
2023-01-03T19:53:15.202Z,3.08
2023-01-03T19:55:45.587Z,3.97
2023-01-03T19:58:29.170Z,4.22
2023-01-03T20:00:56.380Z,4.75
2023-01-03T20:03:28.929Z,2.95
2023-01-03T20:05:56.556Z,4.05
2023-01-03T20:08:23.081Z,3.10
2023-01-03T20:10:52.082Z,3.65
2023-01-03T20:13:27.069Z,3.33
2023-01-03T20:15:57.585Z,2.80
2023-01-03T20:18:34.058Z,3.20
2023-01-03T20:21:06.216Z,2.90
2023-01-03T20:23:36.574Z,3.15
2023-01-03T20:26:05.075Z,2.80
2023-01-03T20:28:31.780Z,2.67
2023-01-03T20:30:59.891Z,3.28
2023-01-03T20:33:28.008Z,2.97
2023-01-03T20:36:22.647Z,3.53
2023-01-03T20:38:49.480Z,4.00
2023-01-03T20:41:17.796Z,3.40
2023-01-03T20:43:45.289Z,2.90
2023-01-03T20:46:17.684Z,2.75
2023-01-03T20:48:44.653Z,3.22
2023-01-03T20:51:13.357Z,3.28
2023-01-03T20:53:43.046Z,2.97
2023-01-03T20:56:13.843Z,3.13
2023-01-03T20:58:40.884Z,3.35
2023-01-03T21:01:08.878Z,1.88
2023-01-03T21:03:37.187Z,2.33
2023-01-03T21:06:16.585Z,2.85
2023-01-03T21:08:55.473Z,2.03
2023-01-03T21:11:26.499Z,2.85
2023-01-03T21:13:53.641Z,2.83
2023-01-03T21:16:32.604Z,2.88
2023-01-03T21:19:20.742Z,2.90
2023-01-03T21:21:49.556Z,2.50
2023-01-03T21:24:18.069Z,2.53
2023-01-03T21:26:45.359Z,2.05
2023-01-03T21:29:12.220Z,2.28
2023-01-03T21:31:42.748Z,1.92
2023-01-03T21:34:21.033Z,2.30
2023-01-03T21:36:48.658Z,2.42
2023-01-03T21:54:14.295Z,1.95
2023-01-03T21:56:47.397Z,1.95
2023-01-03T21:59:17.625Z,2.55
2023-01-03T22:02:06.640Z,2.33
2023-01-03T22:04:34.581Z,2.20
2023-01-03T22:07:01.718Z,1.92
2023-01-03T22:09:48.345Z,2.00
2023-01-03T22:12:16.172Z,1.90
